Time;durP1;ratioP1;P1;durP2;ratioP2;P2;SDS_P1;SDS_P2;PMS_P1;PMS_P2;Temp;Humidity;BMP_temperature;BMP_pressure;BME280_temperature;BME280_humidity;BME280_pressure;Samples;Min_cycle;Max_cycle;Signal;HPM_P1;HPM_P2
2022/04/20 00:00:48;;;;;;;3.67;2.23;;;14.20;32.10;;;14.64;28.24;98353.25;5009112;28;108652;-90
2022/04/20 00:03:14;;;;;;;3.03;2.43;;;14.10;32.80;;;14.54;28.14;98348.97;5009685;28;124225;-92
2022/04/20 00:05:40;;;;;;;2.70;2.30;;;14.00;32.70;;;14.53;28.08;98355.69;5010225;28;123779;-92
2022/04/20 00:08:07;;;;;;;7.57;2.93;;;14.00;32.80;;;14.49;28.34;98343.59;5014191;28;109258;-94
2022/04/20 00:10:34;;;;;;;2.37;2.17;;;13.90;33.20;;;14.44;28.56;98343.84;5010613;28;108753;-93
2022/04/20 00:13:01;;;;;;;3.00;2.37;;;13.90;33.30;;;14.43;28.52;98347.00;5008862;28;124234;-94
2022/04/20 00:15:27;;;;;;;6.00;2.00;;;13.90;33.40;;;14.41;28.98;98344.53;5009677;28;123802;-92
2022/04/20 00:17:54;;;;;;;2.73;2.20;;;15.60;35.10;;;14.40;28.59;98345.72;5009583;28;110037;-92
2022/04/20 00:20:20;;;;;;;2.67;2.00;;;13.90;33.70;;;14.42;28.68;98340.59;5010379;28;109946;-93
2022/04/20 00:22:47;;;;;;;2.97;2.07;;;13.90;33.80;;;14.42;29.02;98339.78;5012270;28;124069;-92
2022/04/20 00:25:13;;;;;;;3.30;2.80;;;13.90;34.20;;;14.35;29.33;98345.94;5024085;28;123929;-92
2022/04/20 00:27:40;;;;;;;3.87;2.57;;;13.80;34.50;;;14.29;29.55;98347.31;5031304;28;109164;-91
2022/04/20 00:30:09;;;;;;;6.20;2.20;;;13.70;34.60;;;14.24;29.71;98344.78;5013942;28;108894;-91
2022/04/20 00:32:36;;;;;;;3.40;2.57;;;13.70;34.90;;;14.21;29.76;98342.69;5010306;28;124227;-92
2022/04/20 00:35:03;;;;;;;3.00;2.30;;;13.60;35.00;;;14.15;30.02;98354.03;5009134;28;122790;-93
2022/04/20 00:37:30;;;;;;;4.30;2.40;;;13.60;35.20;;;14.10;30.10;98351.53;5010911;28;108955;-92
2022/04/20 00:39:56;;;;;;;3.30;2.70;;;13.50;35.40;;;14.02;30.67;98357.97;5009509;28;108798;-92
2022/04/20 00:42:23;;;;;;;3.27;2.60;;;12.80;35.80;;;13.90;30.77;98344.09;4992184;28;123132;-91
2022/04/20 00:44:50;;;;;;;4.40;2.50;;;13.30;36.10;;;13.86;30.53;98351.47;5008444;28;123829;-91
2022/04/20 00:47:18;;;;;;;2.23;2.03;;;13.30;36.10;;;13.86;30.74;98351.47;5009833;28;109259;-91
2022/04/20 00:49:47;;;;;;;4.57;2.30;;;13.30;36.10;;;13.86;30.74;98348.69;5008923;28;108393;-92
2022/04/20 00:52:14;;;;;;;2.20;2.00;;;13.30;36.40;;;13.85;30.69;98345.13;5009298;28;123926;-92
2022/04/20 00:54:40;;;;;;;2.80;2.40;;;13.30;36.40;;;13.83;31.08;98347.41;5009828;28;123733;-91
2022/04/20 00:57:07;;;;;;;2.73;2.07;;;13.30;36.50;;;13.83;30.94;98352.16;5009567;28;108488;-91
2022/04/20 00:59:36;;;;;;;3.83;2.30;;;13.30;36.50;;;13.83;31.27;98346.63;5014119;27;109048;-91
2022/04/20 01:02:03;;;;;;;2.33;2.03;;;13.30;36.60;;;13.82;31.05;98348.59;5025817;28;123871;-91
2022/04/20 01:04:31;;;;;;;2.87;2.10;;;13.20;36.60;;;13.82;31.01;98337.47;5028206;28;123983;-92
2022/04/20 01:07:13;;;;;;;2.00;1.80;;;13.30;36.70;;;13.85;31.22;98335.97;5010974;28;109237;-92
2022/04/20 01:09:42;;;;;;;3.33;2.23;;;13.30;37.50;;;13.81;31.15;98346.13;5010043;28;110251;-91
2022/04/20 01:12:10;;;;;;;2.13;1.77;;;13.20;36.90;;;13.80;31.30;98338.97;5008545;28;123633;-91
2022/04/20 01:14:37;;;;;;;3.13;1.97;;;13.20;36.90;;;13.77;31.14;98343.25;5012967;28;124513;-91
2022/04/20 01:17:04;;;;;;;3.00;2.33;;;13.20;37.10;;;13.75;31.20;98339.19;5015813;28;107407;-91
2022/04/20 01:19:38;;;;;;;2.87;1.80;;;13.20;37.20;;;13.74;31.45;98343.16;5012429;28;109609;-89
2022/04/20 01:22:09;;;;;;;2.70;2.00;;;13.10;37.10;;;13.73;31.41;98345.13;5012287;28;123962;-91
2022/04/20 01:24:37;;;;;;;3.07;2.10;;;13.10;37.10;;;13.72;31.45;98339.91;5013565;28;123985;-90
2022/04/20 01:27:06;;;;;;;2.90;2.40;;;13.20;37.30;;;13.66;31.28;98337.34;4996005;28;108365;-91
2022/04/20 01:29:34;;;;;;;2.10;1.90;;;13.10;37.40;;;13.59;31.69;98339.84;5002854;28;108997;-94
2022/04/20 01:32:00;;;;;;;2.00;1.70;;;13.10;37.40;;;13.56;31.79;98337.78;5012549;28;123877;-92
2022/04/20 01:34:27;;;;;;;2.43;2.23;;;13.00;37.40;;;13.55;31.72;98330.63;5012486;28;122800;-93
2022/04/20 01:36:54;;;;;;;2.97;1.93;;;13.00;37.50;;;13.54;31.78;98337.34;4998412;28;107615;-92
2022/04/20 01:39:20;;;;;;;2.50;2.30;;;13.10;37.70;;;13.52;31.83;98342.41;5031536;27;108069;-92
2022/04/20 01:41:47;;;;;;;2.80;2.37;;;12.90;37.70;;;13.48;31.92;98341.47;5015035;28;124052;-91
2022/04/20 01:44:14;;;;;;;3.37;2.63;;;12.90;37.90;;;13.42;32.08;98338.09;5014392;28;123025;-90
2022/04/20 01:46:41;;;;;;;3.17;2.43;;;12.90;37.90;;;13.40;32.16;98339.59;5000084;28;109497;-90
2022/04/20 01:49:07;;;;;;;2.30;2.10;;;12.90;38.00;;;13.34;32.08;98335.41;5014852;28;107872;-91
2022/04/20 01:51:52;;;;;;;2.60;2.00;;;12.80;38.10;;;13.26;32.09;98340.69;5014848;28;124928;-89
2022/04/20 01:54:19;;;;;;;5.20;1.90;;;12.70;38.10;;;13.19;32.34;98342.38;5019792;27;123170;-90
2022/04/20 01:56:48;;;;;;;2.47;1.97;;;12.60;38.10;;;13.19;32.35;98340.44;5013911;28;109575;-90
2022/04/20 01:59:15;;;;;;;2.30;1.97;;;12.60;38.30;;;13.18;32.47;98333.25;5028291;28;109431;-90
2022/04/20 02:04:27;;;;;;;2.23;2.03;;;12.60;38.40;;;13.17;32.55;98341.91;5020208;28;124463;-89
2022/04/20 02:06:55;;;;;;;2.13;1.93;;;12.60;38.40;;;13.18;32.67;98337.97;5015910;28;108135;-90
2022/04/20 02:09:24;;;;;;;1.90;1.73;;;12.60;38.50;;;13.14;32.69;98337.88;5015676;28;108521;-90
2022/04/20 02:11:51;;;;;;;2.00;1.80;;;11.60;37.70;;;13.13;32.45;98341.78;5016067;28;123111;-88
2022/04/20 02:14:18;;;;;;;2.60;1.93;;;12.60;38.60;;;13.12;32.51;98340.16;5017921;28;123009;-90
2022/04/20 02:16:44;;;;;;;2.80;1.93;;;12.50;38.60;;;13.11;32.82;98344.09;5033733;27;108558;-91
2022/04/20 02:19:11;;;;;;;2.30;1.90;;;12.50;38.70;;;13.11;32.80;98346.88;4998808;28;109291;-90
2022/04/20 02:21:38;;;;;;;2.53;2.33;;;12.80;39.10;;;13.05;32.79;98340.69;5014427;28;124011;-91
2022/04/20 02:24:06;;;;;;;2.20;2.00;;;12.50;38.90;;;13.01;32.92;98345.31;5014730;28;123910;-91
2022/04/20 02:26:32;;;;;;;2.20;2.00;;;12.50;39.00;;;12.99;32.95;98344.84;5014634;28;109316;-91
2022/04/20 02:28:58;;;;;;;2.90;2.53;;;12.40;39.10;;;12.94;33.40;98338.69;5016242;28;108174;-90
2022/04/20 02:31:25;;;;;;;3.00;2.53;;;12.40;39.30;;;12.89;33.38;98348.00;5017670;28;123028;-91
2022/04/20 02:33:53;;;;;;;3.70;2.30;;;13.20;40.10;;;12.87;33.03;98349.50;5037612;28;122403;-91
2022/04/20 02:36:19;;;;;;;2.93;1.87;;;12.30;39.30;;;12.82;33.56;98348.56;5019326;28;108845;-91
2022/04/20 02:38:49;;;;;;;2.50;2.30;;;12.30;39.40;;;12.81;33.99;98337.81;5020292;28;108993;-90
2022/04/20 02:41:16;;;;;;;3.47;2.47;;;12.20;39.40;;;12.77;33.67;98342.41;5034714;28;122221;-91
2022/04/20 02:43:43;;;;;;;2.83;2.23;;;12.20;39.60;;;12.71;33.39;98344.59;5017136;28;123739;-91
2022/04/20 02:46:11;;;;;;;2.80;2.30;;;12.20;39.60;;;12.67;33.76;98342.81;5016091;28;110228;-90
2022/04/20 02:48:38;;;;;;;2.67;2.40;;;12.10;39.60;;;12.61;33.97;98347.75;5017169;28;109697;-91
2022/04/20 02:51:04;;;;;;;1.97;1.87;;;12.10;39.80;;;12.56;33.66;98345.19;5023793;28;123631;-90
2022/04/20 02:54:29;;;;;;;2.80;2.13;;;12.00;39.80;;;12.54;33.84;98342.72;5018689;28;123034;-90
2022/04/20 02:56:56;;;;;;;4.30;2.80;;;10.80;38.80;;;12.50;34.18;98339.03;5021685;28;109113;-90
2022/04/20 02:59:22;;;;;;;2.93;2.13;;;11.90;40.10;;;12.44;34.13;98343.16;5017708;28;108010;-90
2022/04/20 03:01:48;;;;;;;2.30;2.10;;;11.90;40.20;;;12.38;33.76;98339.78;5019475;28;124105;-90
2022/04/20 03:04:16;;;;;;;2.67;2.47;;;11.90;40.20;;;12.32;34.38;98340.28;5020264;28;123804;-91
2022/04/20 03:06:45;;;;;;;2.23;2.00;;;11.80;40.40;;;12.26;34.52;98342.44;5039279;27;107223;-91
2022/04/20 03:09:51;;;;;;;2.60;2.33;;;11.70;40.30;;;12.24;34.23;98339.19;5018797;28;107796;-91
2022/04/20 03:12:17;;;;;;;2.87;2.40;;;11.70;40.40;;;12.21;34.52;98344.59;5022305;28;124889;-89
2022/04/20 03:14:44;;;;;;;3.40;2.10;;;11.70;40.50;;;12.23;34.41;98348.66;5021324;28;122920;-90
2022/04/20 03:17:12;;;;;;;3.57;2.37;;;11.70;40.60;;;12.22;34.75;98341.47;5022392;28;109492;-90
2022/04/20 03:19:59;;;;;;;2.80;2.20;;;11.70;40.70;;;12.23;34.30;98353.38;5023180;28;108782;-90
2022/04/20 03:26:09;;;;;;;3.23;2.50;;;11.60;40.90;;;12.08;34.80;98343.69;5028336;28;124168;-89
2022/04/20 03:28:36;;;;;;;2.60;2.40;;;11.60;41.20;;;12.02;35.13;98353.31;5022442;28;109524;-90
2022/04/20 03:31:04;;;;;;;2.83;2.53;;;11.50;41.00;;;11.97;35.30;98359.03;5022107;28;108581;-90
2022/04/20 03:33:32;;;;;;;4.13;2.50;;;11.50;41.40;;;11.92;35.17;98360.84;5022918;28;123715;-89
2022/04/20 03:35:59;;;;;;;4.07;2.87;;;11.50;41.40;;;11.88;35.45;98348.81;5025012;28;123382;-91
2022/04/20 03:38:31;;;;;;;3.63;2.60;;;11.40;41.60;;;11.85;35.44;98362.50;5025045;28;109810;-90
2022/04/20 03:40:59;;;;;;;2.53;2.20;;;11.30;41.60;;;11.78;35.52;98351.91;5024878;28;109169;-91
2022/04/20 03:43:26;;;;;;;3.50;2.50;;;11.30;41.70;;;11.73;35.75;98355.66;5023595;28;124061;-90
2022/04/20 03:45:52;;;;;;;3.20;2.90;;;11.30;41.90;;;11.68;35.84;98352.28;5027652;28;123022;-89
2022/04/20 03:48:19;;;;;;;4.10;2.97;;;11.20;42.00;;;11.63;35.92;98347.75;5022091;28;108732;-90
2022/04/20 03:50:47;;;;;;;3.90;2.70;;;11.10;42.20;;;11.57;36.00;98351.00;5023418;28;109024;-92
2022/04/20 03:53:32;;;;;;;4.63;3.00;;;11.00;42.50;;;11.46;36.49;98354.13;5043489;27;122706;-91
2022/04/20 03:56:00;;;;;;;4.50;3.17;;;11.00;42.80;;;11.41;36.26;98350.72;5028618;28;123203;-89
2022/04/20 03:58:27;;;;;;;2.70;2.10;;;10.90;42.70;;;11.39;36.52;98348.31;5027394;28;108786;-92
2022/04/20 04:01:53;;;;;;;3.30;2.37;;;10.90;42.70;;;11.40;36.29;98343.59;5047900;28;107360;-90
2022/04/20 04:04:59;;;;;;;2.93;2.40;;;10.90;42.80;;;11.37;36.36;98347.81;5027154;28;124413;-92
2022/04/20 04:07:27;;;;;;;2.50;2.17;;;13.00;44.60;;;11.38;36.08;98346.66;5025291;28;122873;-93
2022/04/20 04:09:56;;;;;;;1.90;1.80;;;10.80;42.60;;;11.41;36.23;98343.22;5028589;28;108993;-92
2022/04/20 04:12:26;;;;;;;2.30;1.90;;;11.00;42.80;;;11.46;36.32;98347.78;5026431;28;108631;-89
2022/04/20 04:14:52;;;;;;;3.47;2.30;;;10.90;42.70;;;11.48;36.13;98351.84;5023265;28;123453;-91
2022/04/20 04:18:01;;;;;;;2.50;2.03;;;10.90;42.70;;;11.52;36.11;98351.19;5022271;28;122801;-90
2022/04/20 04:20:31;;;;;;;2.80;2.20;;;11.00;42.70;;;11.49;36.11;98352.66;5027042;28;109802;-90
2022/04/20 04:23:00;;;;;;;4.00;2.40;;;10.90;42.70;;;11.48;36.11;98345.50;5025955;28;108937;-92
2022/04/20 04:25:29;;;;;;;3.10;2.20;;;10.90;42.80;;;11.47;36.11;98344.72;5022229;28;123827;-89
2022/04/20 04:27:58;;;;;;;2.20;2.00;;;10.90;42.80;;;11.45;36.64;98346.19;5030317;28;123803;-89
2022/04/20 04:30:24;;;;;;;2.63;1.90;;;10.90;42.80;;;11.45;36.27;98352.50;5042064;28;109735;-89
2022/04/20 04:36:33;;;;;;;4.03;2.83;;;10.90;43.70;;;11.27;36.59;98345.38;5029040;28;124365;-89
2022/04/20 04:39:01;;;;;;;2.60;2.40;;;10.80;43.40;;;11.17;36.94;98356.78;5025618;28;123395;-90
2022/04/20 04:41:29;;;;;;;3.37;2.60;;;10.70;43.60;;;11.06;37.07;98346.06;5028212;28;109118;-89
2022/04/20 04:43:56;;;;;;;3.17;2.17;;;10.60;43.60;;;11.03;37.38;98348.66;5026128;28;108797;-90
2022/04/20 04:50:44;;;;;;;3.83;2.50;;;10.50;43.70;;;11.02;37.17;98369.97;5029418;28;125288;-89
2022/04/20 04:53:10;;;;;;;10.20;2.70;;;10.50;43.80;;;11.01;37.18;98371.09;5043811;27;108846;-89
2022/04/20 04:55:37;;;;;;;2.43;2.23;;;10.40;43.90;;;11.02;37.40;98367.22;5043015;27;107775;-90
2022/04/20 04:58:24;;;;;;;3.33;2.80;;;10.40;43.90;;;11.03;37.54;98368.03;5025480;28;122309;-90
2022/04/20 05:00:51;;;;;;;2.47;2.27;;;10.50;44.30;;;11.00;37.53;98368.69;5023589;28;123650;-89
2022/04/20 05:03:17;;;;;;;4.67;2.60;;;10.40;44.40;;;11.01;37.43;98371.09;5021077;28;108848;-91
2022/04/20 05:05:44;;;;;;;2.90;2.33;;;10.40;44.50;;;11.01;37.86;98364.75;5021521;28;108626;-89
2022/04/20 05:08:11;;;;;;;7.10;2.60;;;10.40;44.50;;;11.01;37.80;98378.59;5022692;28;122193;-90
2022/04/20 05:10:38;;;;;;;4.10;2.90;;;10.40;44.70;;;10.98;37.95;98371.75;5025125;28;123594;-88
2022/04/20 05:13:43;;;;;;;2.97;2.67;;;10.40;45.10;;;10.91;37.91;98368.69;5046041;28;108288;-90
2022/04/20 05:16:30;;;;;;;2.20;2.00;;;10.30;44.80;;;10.92;37.70;98367.53;5028310;28;109535;-90
2022/04/20 05:18:56;;;;;;;3.10;2.60;;;10.30;44.70;;;10.92;37.93;98373.06;5021305;28;123550;-89
2022/04/20 05:21:23;;;;;;;3.50;2.50;;;10.30;44.90;;;10.88;38.19;98363.81;5024859;28;124414;-89
2022/04/20 05:24:09;;;;;;;3.47;2.80;;;10.30;44.80;;;10.85;37.85;98372.72;5027683;27;110656;-90
2022/04/20 05:26:35;;;;;;;3.73;2.43;;;10.30;44.90;;;10.83;37.93;98375.03;5021277;28;109274;-90
2022/04/20 05:29:40;;;;;;;3.60;3.00;;;10.30;44.90;;;10.82;38.35;98373.38;5024245;28;123177;-89
2022/04/20 05:32:07;;;;;;;5.00;2.93;;;10.30;45.20;;;10.82;38.22;98365.91;5024964;28;123576;-90
2022/04/20 05:34:34;;;;;;;2.80;2.40;;;10.30;45.10;;;10.87;37.82;98366.88;5042068;28;107703;-90
2022/04/20 05:42:30;;;;;;;3.90;3.20;;;10.40;45.00;;;11.02;38.01;98369.19;5025779;28;124734;-90
2022/04/20 05:44:57;;;;;;;2.30;2.10;;;10.40;44.90;;;11.09;37.60;98372.25;5040320;27;107258;-90
2022/04/20 05:47:25;;;;;;;3.00;2.37;;;10.40;44.80;;;11.16;37.70;98371.75;5022382;28;108783;-90
2022/04/20 05:49:53;;;;;;;3.20;2.67;;;10.50;44.80;;;11.18;37.61;98375.03;5017433;28;123841;-90
2022/04/20 05:52:22;;;;;;;3.90;3.00;;;10.60;45.00;;;11.21;37.92;98377.13;5019876;28;123247;-90
2022/04/20 05:54:49;;;;;;;3.67;2.43;;;10.60;44.80;;;11.27;37.80;98381.34;5019171;28;108710;-89
2022/04/20 05:57:15;;;;;;;3.43;2.83;;;10.60;44.80;;;11.30;37.78;98377.91;5019340;28;108377;-89
2022/04/20 05:59:43;;;;;;;3.53;2.23;;;10.70;44.90;;;11.34;37.70;98376.13;5036744;28;122072;-91
2022/04/20 06:02:48;;;;;;;3.00;2.70;;;10.70;44.90;;;11.38;37.58;98379.84;5018845;28;123435;-89
2022/04/20 06:05:15;;;;;;;2.80;2.20;;;10.70;44.70;;;11.41;37.24;98386.69;5024959;28;108790;-91
2022/04/20 06:07:43;;;;;;;3.63;2.70;;;10.80;44.60;;;11.47;37.36;98380.66;5025824;28;108828;-90
2022/04/20 06:10:10;;;;;;;3.60;3.03;;;10.80;44.70;;;11.54;37.40;98382.91;5034774;28;122867;-90
2022/04/20 06:12:37;;;;;;;2.33;2.13;;;10.90;44.70;;;11.57;37.04;98389.75;5004432;28;124822;-90
2022/04/20 06:15:06;;;;;;;2.87;2.50;;;10.90;44.50;;;11.61;36.97;98385.19;5020254;28;109808;-90
2022/04/20 06:17:33;;;;;;;3.10;2.80;;;10.90;44.50;;;11.64;37.28;98387.31;5019106;28;110091;-89
2022/04/20 06:19:59;;;;;;;3.90;3.00;;;10.90;44.40;;;11.66;37.08;98385.84;5016310;28;123615;-92
2022/04/20 06:22:26;;;;;;;3.13;2.73;;;11.00;44.50;;;11.74;37.19;98386.94;5016125;28;122964;-92
2022/04/20 06:24:52;;;;;;;5.63;3.20;;;11.00;44.50;;;11.83;36.78;98382.19;5028541;28;109740;-91
2022/04/20 06:27:19;;;;;;;4.07;2.90;;;11.10;44.50;;;11.85;37.10;98384.63;5016287;28;108999;-91
2022/04/20 06:29:45;;;;;;;4.40;3.17;;;11.20;44.70;;;11.84;37.26;98378.25;5016900;28;124074;-90
2022/04/20 06:32:12;;;;;;;3.17;2.73;;;11.10;44.50;;;11.89;37.11;98378.13;5016448;28;124024;-91
2022/04/20 06:34:38;;;;;;;10.50;7.07;;;11.20;44.80;;;11.97;36.91;98378.44;5015015;28;109440;-90
2022/04/20 06:37:05;;;;;;;11.70;6.67;;;11.20;44.40;;;12.00;36.72;98378.56;5017427;28;109278;-91
2022/04/20 06:39:32;;;;;;;8.23;4.70;;;11.30;44.40;;;12.03;36.46;98377.09;4999342;28;120487;-91
2022/04/20 06:42:01;;;;;;;5.73;3.57;;;11.30;44.30;;;12.06;36.75;98376.41;5013567;28;122784;-92
2022/04/20 06:44:27;;;;;;;4.13;2.90;;;11.30;44.10;;;12.13;36.34;98382.25;5015258;28;109003;-92
2022/04/20 06:46:54;;;;;;;4.60;2.97;;;11.40;44.20;;;12.23;36.50;98381.09;5014066;28;109075;-90
2022/04/20 06:49:21;;;;;;;2.90;2.60;;;11.50;44.20;;;12.33;36.75;98375.97;5013371;28;123252;-93
2022/04/20 07:00:04;;;;;;;3.33;2.83;;;11.80;43.70;;;12.59;35.84;98377.75;5022892;28;124609;-91
2022/04/20 07:02:31;;;;;;;4.73;2.63;;;11.90;43.60;;;12.58;35.86;98370.59;5029820;28;123822;-91
2022/04/20 07:04:57;;;;;;;3.00;2.63;;;11.90;43.50;;;12.60;35.81;98368.31;5021189;28;110166;-91
2022/04/20 07:07:26;;;;;;;4.37;2.80;;;11.90;43.50;;;12.67;35.97;98365.81;5013051;28;109966;-91
2022/04/20 07:09:53;;;;;;;3.90;3.30;;;11.90;43.50;;;12.69;35.67;98366.28;5014040;28;123716;-92
2022/04/20 07:12:19;;;;;;;3.40;3.00;;;11.90;43.30;;;12.69;35.33;98362.72;5021679;28;123862;-92
2022/04/20 07:14:46;;;;;;;4.70;3.17;;;11.90;43.20;;;12.65;35.49;98362.56;5012484;28;109267;-91
2022/04/20 07:17:12;;;;;;;3.33;3.03;;;11.90;43.20;;;12.64;35.26;98362.91;5013649;28;108016;-91
2022/04/20 07:19:39;;;;;;;3.70;3.20;;;11.90;43.20;;;12.66;35.51;98361.41;5023458;28;124146;-91
2022/04/20 07:22:05;;;;;;;5.53;3.20;;;12.00;43.20;;;12.72;35.61;98354.53;5012627;28;123219;-90
2022/04/20 07:24:32;;;;;;;3.30;2.97;;;12.00;43.10;;;12.80;35.07;98353.63;5011023;28;109166;-91
2022/04/20 07:26:58;;;;;;;4.33;3.00;;;12.10;43.10;;;12.85;35.41;98354.59;5011251;28;108049;-92
2022/04/20 07:29:25;;;;;;;4.27;2.90;;;12.10;42.90;;;12.88;35.25;98348.38;5009940;28;124019;-91
2022/04/20 07:31:51;;;;;;;3.03;2.60;;;12.10;42.70;;;12.91;34.75;98356.81;5014350;28;122627;-89
2022/04/20 07:34:18;;;;;;;5.10;2.97;;;12.20;42.70;;;12.97;34.70;98366.53;5012389;28;109365;-90
2022/04/20 07:36:45;;;;;;;4.20;2.63;;;12.20;42.60;;;13.00;34.81;98348.41;5012267;28;108291;-91
2022/04/20 07:39:11;;;;;;;3.80;3.10;;;13.80;43.90;;;12.98;34.53;98353.50;5012930;28;124270;-89
2022/04/20 07:41:39;;;;;;;3.47;2.90;;;12.30;42.40;;;12.98;35.06;98357.09;5011035;28;123847;-90
2022/04/20 07:44:06;;;;;;;3.40;2.67;;;12.30;42.40;;;12.95;34.92;98363.31;5012540;28;109130;-90
2022/04/20 07:46:32;;;;;;;3.90;2.70;;;12.30;42.40;;;12.96;34.71;98364.13;5011997;28;108896;-89
2022/04/20 07:50:18;;;;;;;2.63;2.20;;;12.30;42.40;;;13.04;34.76;98372.38;5013220;28;124136;-86
2022/04/20 07:51:46;;;;;;;2.70;2.30;;;12.40;42.50;;;13.13;34.88;98371.47;5027980;28;123911;-87
2022/04/20 07:54:12;;;;;;;2.33;2.10;;;12.40;42.30;;;13.20;35.06;98375.31;5014552;28;109459;-90
2022/04/20 07:56:39;;;;;;;2.60;2.40;;;12.50;42.70;;;13.30;35.04;98381.63;5019845;28;110016;-86
2022/04/20 07:59:05;;;;;;;2.80;2.30;;;12.60;42.80;;;13.41;34.80;98375.31;5022260;28;124495;-88
2022/04/20 08:01:33;;;;;;;6.93;3.07;;;12.70;42.80;;;13.54;34.57;98373.41;5014830;28;122910;-89
2022/04/20 08:03:59;;;;;;;5.50;2.33;;;12.80;42.60;;;13.57;34.48;98372.72;5010463;28;109136;-87
2022/04/20 08:06:27;;;;;;;2.67;2.30;;;12.80;42.40;;;13.62;34.33;98363.34;5010732;28;108809;-88
2022/04/20 08:08:53;;;;;;;3.60;2.57;;;12.90;42.30;;;13.67;34.57;98363.13;5010142;28;124260;-87
2022/04/20 08:11:20;;;;;;;3.60;2.60;;;13.00;42.30;;;13.69;34.06;98369.97;5016163;28;123880;-86
2022/04/20 08:16:34;;;;;;;5.23;3.10;;;13.00;41.70;;;13.63;33.83;98365.78;5013136;28;109625;-86
2022/04/20 08:19:01;;;;;;;3.77;2.60;;;13.00;41.60;;;13.64;33.72;98367.41;5009112;28;124038;-88
2022/04/20 08:21:27;;;;;;;3.90;2.57;;;13.00;41.50;;;13.70;33.99;98366.06;5009763;28;123678;-90
2022/04/20 08:23:57;;;;;;;2.90;2.67;;;13.00;41.40;;;13.77;33.59;98365.47;5009793;28;108914;-89
2022/04/20 08:26:26;;;;;;;2.00;1.80;;;13.10;41.30;;;13.84;33.62;98362.94;5008991;28;108562;-89
2022/04/20 08:28:52;;;;;;;3.20;2.60;;;13.10;41.20;;;13.92;33.70;98361.22;5010003;28;124095;-90
2022/04/20 08:31:19;;;;;;;6.00;3.30;;;13.30;41.40;;;13.95;33.18;98366.09;5009531;28;123838;-89
2022/04/20 08:33:45;;;;;;;3.00;2.70;;;13.20;40.80;;;13.90;33.41;98360.75;5010801;28;109977;-89
2022/04/20 08:36:12;;;;;;;3.43;2.77;;;13.20;40.70;;;13.87;33.35;98364.22;5010576;28;108879;-86
2022/04/20 08:38:39;;;;;;;1.90;1.70;;;13.20;40.70;;;13.92;33.26;98361.22;5026915;28;124212;-89
2022/04/20 08:41:11;;;;;;;3.10;2.80;;;13.30;40.90;;;13.99;33.16;98357.84;5031823;28;124250;-85
2022/04/20 08:43:41;;;;;;;2.80;2.60;;;13.30;40.70;;;13.95;33.36;98360.53;5014160;28;110218;-86
2022/04/20 08:46:11;;;;;;;5.13;2.83;;;13.30;40.50;;;13.92;33.21;98372.34;5017502;27;108889;-86
2022/04/20 08:48:38;;;;;;;4.70;2.80;;;13.20;40.50;;;13.94;33.34;98367.22;5021455;28;123845;-88
2022/04/20 08:51:06;;;;;;;3.13;2.70;;;13.30;40.60;;;13.94;32.93;98364.44;5009753;28;123892;-88
2022/04/20 08:53:33;;;;;;;3.37;2.77;;;13.30;40.50;;;13.92;32.78;98362.03;5008126;28;109907;-88
2022/04/20 08:58:49;;;;;;;3.60;2.77;;;13.30;40.50;;;13.96;32.86;98356.59;5013212;28;123919;-90
2022/04/20 09:01:18;;;;;;;2.50;2.30;;;13.30;40.40;;;14.02;32.77;98359.94;5012586;28;124051;-88
2022/04/20 09:03:46;;;;;;;3.60;2.60;;;13.40;40.40;;;14.08;32.46;98362.16;5016354;28;109553;-88
2022/04/20 09:06:16;;;;;;;3.10;2.47;;;13.40;40.00;;;14.12;32.55;98360.28;5012545;28;108494;-88
2022/04/20 09:08:44;;;;;;;4.10;2.87;;;13.50;40.00;;;14.20;31.92;98354.97;5013432;28;123883;-88
2022/04/20 09:11:11;;;;;;;2.97;2.47;;;13.50;39.30;;;14.17;31.63;98355.69;5012872;28;122812;-91
2022/04/20 09:13:42;;;;;;;2.80;2.10;;;13.50;38.80;;;14.18;31.86;98346.97;5012289;28;108809;-88
2022/04/20 09:16:13;;;;;;;2.17;1.87;;;13.50;39.00;;;14.26;31.82;98351.59;5010781;28;109933;-87
2022/04/20 09:18:44;;;;;;;4.00;2.93;;;13.60;39.20;;;14.32;31.53;98341.91;5010535;28;123817;-87
2022/04/20 09:21:15;;;;;;;2.70;2.17;;;13.60;38.90;;;14.38;31.77;98338.88;5013027;28;124629;-87
2022/04/20 09:23:42;;;;;;;2.60;2.30;;;13.70;38.90;;;14.42;31.50;98346.16;5013536;28;109271;-89
2022/04/20 09:26:17;;;;;;;3.87;2.33;;;13.70;38.60;;;14.47;30.87;98351.47;5010815;28;108819;-87
2022/04/20 09:29:07;;;;;;;6.23;2.53;;;13.80;38.10;;;14.50;30.31;98344.41;5010271;28;124382;-86
2022/04/20 09:31:52;;;;;;;2.60;2.40;;;13.80;37.60;;;14.43;30.44;98342.25;5009935;28;124435;-87
2022/04/20 09:34:34;;;;;;;2.90;2.60;;;13.80;37.30;;;14.46;30.52;98340.72;5010670;28;110378;-87
2022/04/20 09:37:12;;;;;;;7.70;2.63;;;13.80;37.30;;;14.46;30.17;98337.94;5016429;28;110391;-88
2022/04/20 09:39:50;;;;;;;3.37;2.70;;;13.80;36.80;;;14.47;30.04;98342.34;5017767;28;124111;-88
2022/04/20 09:42:19;;;;;;;5.83;2.90;;;13.80;36.80;;;14.46;30.21;98347.09;5017577;28;122871;-87
2022/04/20 09:44:57;;;;;;;3.10;2.30;;;13.80;36.70;;;14.46;30.21;98341.53;5014469;28;109018;-88
2022/04/20 09:50:19;;;;;;;2.33;2.07;;;13.90;36.90;;;14.58;30.02;98343.50;5023036;28;123681;-87
2022/04/20 09:52:47;;;;;;;2.40;2.20;;;13.90;36.50;;;14.64;29.74;98335.72;5027476;28;123728;-86
2022/04/20 09:55:26;;;;;;;4.53;2.73;;;14.00;36.20;;;14.67;29.29;98329.47;5013031;28;109114;-86
2022/04/20 09:58:08;;;;;;;2.83;2.20;;;14.10;35.50;;;14.69;29.25;98327.16;5027667;28;109081;-87
2022/04/20 10:00:48;;;;;;;2.30;2.00;;;14.10;35.70;;;14.73;29.25;98322.50;4999051;28;124299;-86
2022/04/20 10:03:26;;;;;;;2.27;2.07;;;14.10;35.50;;;14.76;28.91;98325.41;5013968;28;122910;-88
2022/04/20 10:05:54;;;;;;;4.20;2.60;;;14.10;35.30;;;14.77;28.58;98323.41;5031465;28;107455;-88
2022/04/20 10:08:22;;;;;;;3.97;2.50;;;14.10;34.50;;;14.74;28.20;98321.34;5017345;28;108561;-89
2022/04/20 10:10:51;;;;;;;2.80;2.20;;;14.10;33.80;;;14.68;28.05;98314.41;5017031;28;124320;-88
2022/04/20 10:13:19;;;;;;;2.60;2.33;;;14.10;33.80;;;14.67;28.39;98319.16;5012944;28;123330;-89
2022/04/20 10:16:08;;;;;;;4.50;2.40;;;14.10;34.20;;;14.69;27.92;98318.81;5013824;28;107739;-87
2022/04/20 10:18:39;;;;;;;3.90;2.10;;;14.10;33.30;;;14.71;27.97;98316.50;5011404;28;108922;-89
2022/04/20 10:21:11;;;;;;;3.93;2.13;;;14.10;33.70;;;14.74;28.10;98308.25;5016257;28;124494;-88
2022/04/20 10:23:47;;;;;;;2.50;2.30;;;14.20;34.00;;;14.78;28.38;98308.38;5027690;28;123886;-87
2022/04/20 10:26:16;;;;;;;2.50;2.27;;;14.20;34.10;;;14.79;28.26;98310.78;5014531;28;110229;-88
2022/04/20 10:29:24;;;;;;;2.97;2.33;;;15.70;35.50;;;14.84;28.35;98303.38;5013389;28;109833;-87
2022/04/20 10:32:30;;;;;;;5.23;2.80;;;14.20;34.30;;;14.91;28.47;98307.16;5015914;28;124740;-87
2022/04/20 10:34:59;;;;;;;2.00;1.70;;;14.30;34.50;;;15.01;28.55;98301.06;5016636;28;123833;-86
2022/04/20 10:37:28;;;;;;;3.03;2.23;;;14.40;34.60;;;15.09;28.38;98298.50;5014514;28;109269;-88
2022/04/20 10:40:17;;;;;;;2.40;2.20;;;14.40;34.40;;;15.14;28.28;98287.13;5013688;28;109373;-87
2022/04/20 10:42:48;;;;;;;3.13;2.10;;;14.50;34.40;;;15.19;28.26;98278.53;5012542;28;121805;-87
2022/04/20 10:45:16;;;;;;;2.50;2.30;;;14.50;34.40;;;15.22;28.12;98280.59;5013331;28;124058;-87
2022/04/20 10:47:44;;;;;;;3.77;2.90;;;14.60;34.30;;;15.22;28.16;98278.59;5014145;28;107316;-89
2022/04/20 10:50:22;;;;;;;4.87;2.43;;;14.60;34.00;;;15.26;27.80;98278.72;5017871;28;109528;-89
2022/04/20 10:52:57;;;;;;;2.70;2.50;;;14.60;33.60;;;15.28;27.75;98265.22;5013353;28;124017;-86
2022/04/20 10:55:44;;;;;;;3.03;2.30;;;14.70;33.60;;;15.33;27.80;98276.09;5012964;28;123027;-87
2022/04/20 10:58:22;;;;;;;3.67;2.30;;;14.70;33.60;;;15.45;27.67;98281.63;5015168;28;109000;-87
2022/04/20 11:01:09;;;;;;;3.20;2.23;;;14.80;33.50;;;15.55;27.01;98269.13;5015143;28;109192;-88
2022/04/20 11:04:11;;;;;;;4.30;2.77;;;14.90;32.90;;;15.59;26.49;98281.19;5014820;28;123825;-90